Chatsworth, California
Current Conditions -  °F | °C
As of 12:51 PM on Wednesday 26 Nov 2014 (Local Time) from KVNY Reporting Station
Clear Clear  
Wind Chill: 85°   Ceiling: Unl
Heat Index: 85°   Visibility: 10mi
Dew Point: 14°   Wind: 3mph
Humidity: 7%   Direction: 110°ESE
Pressure: 30.17"   Gusts: NA
Location:  34.26°N, 118.6°W
Report Text: KVNY 262051Z 11003KT 10SM CLR 29/M10 A3017 RMK AO2 RAB29E38 SLP208 P0000 60000 T02941100 58028
Loading
Personal Weather Stations






























Interactive Weather Map New forecast layout! Learn more

10-Day Weather Forecast

Advertisements
Track Severe Weather on mobile